sensor_id;sensor_type;location;lat;lon;timestamp;pressure;altitude;pressure_sealevel;temperature;humidity
77227;BME280;66234;47.642;19.144;2023-02-12T00:02:19;101570.94;;;4.45;75.88
77227;BME280;66234;47.642;19.144;2023-02-12T00:05:21;101569.78;;;4.38;76.20
77227;BME280;66234;47.642;19.144;2023-02-12T00:08:24;101574.28;;;4.37;76.28
77227;BME280;66234;47.642;19.144;2023-02-12T00:11:27;101579.25;;;4.31;76.52
77227;BME280;66234;47.642;19.144;2023-02-12T00:14:30;101593.22;;;4.33;76.77
77227;BME280;66234;47.642;19.144;2023-02-12T00:17:33;101576.88;;;4.28;76.87
77227;BME280;66234;47.642;19.144;2023-02-12T00:20:36;101590.84;;;4.30;76.94
77227;BME280;66234;47.642;19.144;2023-02-12T00:23:39;101588.59;;;4.35;76.98
77227;BME280;66234;47.642;19.144;2023-02-12T00:26:44;101586.09;;;4.33;77.22
77227;BME280;66234;47.642;19.144;2023-02-12T00:29:49;101597.69;;;4.42;77.01
77227;BME280;66234;47.642;19.144;2023-02-12T00:32:52;101597.84;;;4.40;77.20
77227;BME280;66234;47.642;19.144;2023-02-12T00:35:56;101588.66;;;4.54;76.12
77227;BME280;66234;47.642;19.144;2023-02-12T00:38:59;101582.25;;;4.56;76.34
77227;BME280;66234;47.642;19.144;2023-02-12T00:42:01;101577.38;;;4.61;76.02
77227;BME280;66234;47.642;19.144;2023-02-12T00:45:04;101587.28;;;4.50;76.66
77227;BME280;66234;47.642;19.144;2023-02-12T00:48:07;101599.38;;;4.43;77.05
77227;BME280;66234;47.642;19.144;2023-02-12T00:51:09;101592.41;;;4.42;77.10
77227;BME280;66234;47.642;19.144;2023-02-12T00:54:12;101580.00;;;4.42;77.00
77227;BME280;66234;47.642;19.144;2023-02-12T00:57:14;101587.78;;;4.34;77.50
77227;BME280;66234;47.642;19.144;2023-02-12T01:00:17;101600.44;;;4.31;77.50
77227;BME280;66234;47.642;19.144;2023-02-12T01:03:20;101606.72;;;4.30;77.47
77227;BME280;66234;47.642;19.144;2023-02-12T01:06:23;101601.47;;;4.09;78.14
77227;BME280;66234;47.642;19.144;2023-02-12T01:09:26;101587.66;;;4.06;78.58
77227;BME280;66234;47.642;19.144;2023-02-12T01:12:28;101584.56;;;4.01;78.90
77227;BME280;66234;47.642;19.144;2023-02-12T01:15:31;101577.78;;;4.08;78.20
77227;BME280;66234;47.642;19.144;2023-02-12T01:18:34;101570.56;;;4.10;78.00
77227;BME280;66234;47.642;19.144;2023-02-12T01:21:37;101566.56;;;4.25;77.23
77227;BME280;66234;47.642;19.144;2023-02-12T01:24:42;101570.34;;;4.22;77.29
77227;BME280;66234;47.642;19.144;2023-02-12T01:27:44;101563.34;;;4.21;77.42
77227;BME280;66234;47.642;19.144;2023-02-12T01:30:47;101569.66;;;4.30;76.62
77227;BME280;66234;47.642;19.144;2023-02-12T01:33:52;101563.50;;;4.29;77.13
77227;BME280;66234;47.642;19.144;2023-02-12T01:36:55;101564.47;;;4.19;77.32
77227;BME280;66234;47.642;19.144;2023-02-12T01:39:58;101550.78;;;4.14;77.61
77227;BME280;66234;47.642;19.144;2023-02-12T01:43:00;101564.19;;;4.22;77.44
77227;BME280;66234;47.642;19.144;2023-02-12T01:46:04;101565.41;;;4.18;77.54
77227;BME280;66234;47.642;19.144;2023-02-12T01:49:14;101549.44;;;4.29;77.36
77227;BME280;66234;47.642;19.144;2023-02-12T01:52:38;101548.88;;;4.35;76.74
77227;BME280;66234;47.642;19.144;2023-02-12T01:55:49;101556.41;;;4.39;76.56
77227;BME280;66234;47.642;19.144;2023-02-12T01:58:54;101560.63;;;4.42;76.10
77227;BME280;66234;47.642;19.144;2023-02-12T02:01:59;101572.72;;;4.35;76.33
77227;BME280;66234;47.642;19.144;2023-02-12T02:05:03;101570.78;;;4.37;76.31
77227;BME280;66234;47.642;19.144;2023-02-12T02:08:08;101558.63;;;4.25;76.49
77227;BME280;66234;47.642;19.144;2023-02-12T02:11:11;101566.56;;;4.25;76.33
77227;BME280;66234;47.642;19.144;2023-02-12T02:14:35;101573.78;;;4.23;76.41
77227;BME280;66234;47.642;19.144;2023-02-12T02:17:54;101574.34;;;4.17;76.63
77227;BME280;66234;47.642;19.144;2023-02-12T02:21:17;101573.16;;;4.00;77.27
77227;BME280;66234;47.642;19.144;2023-02-12T02:24:39;101576.84;;;4.18;76.32
77227;BME280;66234;47.642;19.144;2023-02-12T02:31:19;101587.81;;;3.84;77.40
77227;BME280;66234;47.642;19.144;2023-02-12T02:34:35;101595.34;;;3.58;78.07
77227;BME280;66234;47.642;19.144;2023-02-12T02:37:45;101601.59;;;3.36;79.07
77227;BME280;66234;47.642;19.144;2023-02-12T02:40:59;101596.56;;;3.33;79.89
77227;BME280;66234;47.642;19.144;2023-02-12T02:44:11;101585.31;;;3.82;77.79
77227;BME280;66234;47.642;19.144;2023-02-12T02:47:16;101590.78;;;3.90;77.34
77227;BME280;66234;47.642;19.144;2023-02-12T02:50:23;101585.63;;;3.89;77.25
77227;BME280;66234;47.642;19.144;2023-02-12T02:53:31;101592.03;;;3.86;77.23
77227;BME280;66234;47.642;19.144;2023-02-12T02:56:38;101592.88;;;3.87;77.48
77227;BME280;66234;47.642;19.144;2023-02-12T02:59:46;101595.53;;;3.87;77.13
77227;BME280;66234;47.642;19.144;2023-02-12T03:03:14;101594.53;;;3.88;77.25
77227;BME280;66234;47.642;19.144;2023-02-12T03:06:58;101601.56;;;3.78;77.56
77227;BME280;66234;47.642;19.144;2023-02-12T03:10:33;101603.88;;;3.62;77.71
77227;BME280;66234;47.642;19.144;2023-02-12T03:17:13;101619.13;;;3.17;79.02
77227;BME280;66234;47.642;19.144;2023-02-12T03:20:42;101633.47;;;2.92;80.17
77227;BME280;66234;47.642;19.144;2023-02-12T03:23:51;101625.75;;;2.69;80.88
77227;BME280;66234;47.642;19.144;2023-02-12T03:30:20;101647.25;;;2.53;81.39
77227;BME280;66234;47.642;19.144;2023-02-12T03:33:33;101644.63;;;2.42;80.98
77227;BME280;66234;47.642;19.144;2023-02-12T03:37:03;101660.56;;;2.08;82.17
77227;BME280;66234;47.642;19.144;2023-02-12T03:41:01;101661.88;;;2.02;83.06
77227;BME280;66234;47.642;19.144;2023-02-12T03:43:54;101663.06;;;1.87;84.73
77227;BME280;66234;47.642;19.144;2023-02-12T03:47:30;101667.50;;;1.87;83.96
77227;BME280;66234;47.642;19.144;2023-02-12T03:50:43;101674.63;;;1.73;84.53
77227;BME280;66234;47.642;19.144;2023-02-12T03:53:49;101675.22;;;1.66;84.58
77227;BME280;66234;47.642;19.144;2023-02-12T03:57:00;101678.56;;;1.57;85.96
77227;BME280;66234;47.642;19.144;2023-02-12T04:00:08;101688.13;;;1.58;86.06
77227;BME280;66234;47.642;19.144;2023-02-12T04:03:21;101701.34;;;1.34;85.31
77227;BME280;66234;47.642;19.144;2023-02-12T04:06:27;101708.34;;;1.23;85.85
77227;BME280;66234;47.642;19.144;2023-02-12T04:09:31;101706.31;;;1.03;86.14
77227;BME280;66234;47.642;19.144;2023-02-12T04:12:42;101706.16;;;0.81;86.97
77227;BME280;66234;47.642;19.144;2023-02-12T04:15:56;101707.16;;;0.67;87.39
77227;BME280;66234;47.642;19.144;2023-02-12T04:19:04;101720.75;;;0.49;87.54
77227;BME280;66234;47.642;19.144;2023-02-12T04:25:32;101732.84;;;0.64;89.35
77227;BME280;66234;47.642;19.144;2023-02-12T04:32:32;101742.66;;;0.49;89.00
77227;BME280;66234;47.642;19.144;2023-02-12T04:35:47;101744.66;;;0.46;89.18
77227;BME280;66234;47.642;19.144;2023-02-12T04:38:56;101754.03;;;0.37;89.29
77227;BME280;66234;47.642;19.144;2023-02-12T04:42:00;101758.34;;;0.51;88.86
77227;BME280;66234;47.642;19.144;2023-02-12T04:45:04;101750.00;;;0.69;89.72
77227;BME280;66234;47.642;19.144;2023-02-12T04:48:07;101766.84;;;0.54;88.85
77227;BME280;66234;47.642;19.144;2023-02-12T04:51:09;101765.59;;;0.35;88.32
77227;BME280;66234;47.642;19.144;2023-02-12T04:54:13;101761.94;;;0.25;88.87
77227;BME280;66234;47.642;19.144;2023-02-12T04:57:16;101769.81;;;0.12;89.08
77227;BME280;66234;47.642;19.144;2023-02-12T05:00:19;101777.47;;;0.03;89.57
77227;BME280;66234;47.642;19.144;2023-02-12T05:03:21;101773.06;;;0.03;89.86
77227;BME280;66234;47.642;19.144;2023-02-12T05:06:24;101777.38;;;0.04;89.63
77227;BME280;66234;47.642;19.144;2023-02-12T05:09:26;101796.53;;;0.06;90.48
77227;BME280;66234;47.642;19.144;2023-02-12T05:12:29;101795.78;;;0.17;90.81
77227;BME280;66234;47.642;19.144;2023-02-12T05:15:31;101794.47;;;-0.03;90.09
77227;BME280;66234;47.642;19.144;2023-02-12T05:18:34;101803.41;;;-0.06;89.99
77227;BME280;66234;47.642;19.144;2023-02-12T05:21:37;101810.47;;;-0.06;90.55
77227;BME280;66234;47.642;19.144;2023-02-12T05:24:45;101819.41;;;0.56;91.25
77227;BME280;66234;47.642;19.144;2023-02-12T05:27:48;101823.19;;;0.52;90.23
77227;BME280;66234;47.642;19.144;2023-02-12T05:30:50;101816.25;;;0.63;90.74
77227;BME280;66234;47.642;19.144;2023-02-12T05:33:53;101820.97;;;0.58;89.77
77227;BME280;66234;47.642;19.144;2023-02-12T05:36:56;101828.31;;;0.41;89.55
77227;BME280;66234;47.642;19.144;2023-02-12T05:39:58;101832.19;;;0.23;89.62
77227;BME280;66234;47.642;19.144;2023-02-12T05:43:01;101832.28;;;0.09;89.22
77227;BME280;66234;47.642;19.144;2023-02-12T05:46:05;101842.75;;;-0.04;89.68
77227;BME280;66234;47.642;19.144;2023-02-12T05:49:08;101845.78;;;-0.10;90.25
77227;BME280;66234;47.642;19.144;2023-02-12T05:52:12;101840.38;;;-0.21;89.87
77227;BME280;66234;47.642;19.144;2023-02-12T05:55:14;101851.59;;;-0.32;90.73
77227;BME280;66234;47.642;19.144;2023-02-12T05:58:17;101861.00;;;-0.42;90.67
77227;BME280;66234;47.642;19.144;2023-02-12T06:01:23;101871.69;;;-0.45;90.75
77227;BME280;66234;47.642;19.144;2023-02-12T06:04:28;101872.09;;;-0.51;90.78
77227;BME280;66234;47.642;19.144;2023-02-12T06:07:30;101872.09;;;-0.51;90.64
77227;BME280;66234;47.642;19.144;2023-02-12T06:10:33;101876.44;;;-0.50;90.77
77227;BME280;66234;47.642;19.144;2023-02-12T06:13:35;101883.22;;;-0.33;90.74
77227;BME280;66234;47.642;19.144;2023-02-12T06:16:38;101885.19;;;-0.37;90.34
77227;BME280;66234;47.642;19.144;2023-02-12T06:19:41;101889.16;;;-0.30;91.04
77227;BME280;66234;47.642;19.144;2023-02-12T06:22:44;101892.69;;;-0.31;91.55
77227;BME280;66234;47.642;19.144;2023-02-12T06:25:47;101902.69;;;-0.36;91.36
77227;BME280;66234;47.642;19.144;2023-02-12T06:28:50;101911.38;;;-0.35;91.08
77227;BME280;66234;47.642;19.144;2023-02-12T06:31:53;101909.50;;;-0.33;90.00
77227;BME280;66234;47.642;19.144;2023-02-12T06:34:56;101906.75;;;-0.18;91.50
77227;BME280;66234;47.642;19.144;2023-02-12T06:37:58;101912.66;;;-0.14;90.93
77227;BME280;66234;47.642;19.144;2023-02-12T06:41:02;101917.41;;;-0.07;90.36
77227;BME280;66234;47.642;19.144;2023-02-12T06:44:05;101925.41;;;-0.08;90.28
77227;BME280;66234;47.642;19.144;2023-02-12T06:47:08;101931.47;;;-0.08;90.22
77227;BME280;66234;47.642;19.144;2023-02-12T06:50:10;101935.72;;;-0.05;90.35
77227;BME280;66234;47.642;19.144;2023-02-12T06:53:13;101941.44;;;0.02;90.51
77227;BME280;66234;47.642;19.144;2023-02-12T06:56:16;101934.63;;;0.12;90.41
77227;BME280;66234;47.642;19.144;2023-02-12T06:59:19;101939.47;;;0.18;90.39
77227;BME280;66234;47.642;19.144;2023-02-12T07:02:22;101944.44;;;0.22;90.75
77227;BME280;66234;47.642;19.144;2023-02-12T07:05:25;101941.09;;;0.33;90.80
77227;BME280;66234;47.642;19.144;2023-02-12T07:08:28;101957.19;;;0.55;90.99
77227;BME280;66234;47.642;19.144;2023-02-12T07:11:33;101954.22;;;0.59;90.83
77227;BME280;66234;47.642;19.144;2023-02-12T07:14:39;101971.16;;;0.94;90.79
77227;BME280;66234;47.642;19.144;2023-02-12T07:17:41;101975.25;;;0.98;90.43
77227;BME280;66234;47.642;19.144;2023-02-12T07:20:44;101985.38;;;1.04;90.68
77227;BME280;66234;47.642;19.144;2023-02-12T07:23:49;101977.59;;;1.15;90.44
77227;BME280;66234;47.642;19.144;2023-02-12T07:26:52;101984.00;;;1.24;90.56
77227;BME280;66234;47.642;19.144;2023-02-12T07:29:55;101991.19;;;1.34;90.61
77227;BME280;66234;47.642;19.144;2023-02-12T07:32:58;101982.34;;;1.48;90.68
77227;BME280;66234;47.642;19.144;2023-02-12T07:36:01;102000.00;;;1.84;90.02
77227;BME280;66234;47.642;19.144;2023-02-12T07:39:04;101994.69;;;1.96;89.63
77227;BME280;66234;47.642;19.144;2023-02-12T07:42:07;101993.88;;;2.19;88.91
77227;BME280;66234;47.642;19.144;2023-02-12T07:45:10;101995.16;;;2.37;88.75
77227;BME280;66234;47.642;19.144;2023-02-12T07:48:12;101994.97;;;2.75;87.27
77227;BME280;66234;47.642;19.144;2023-02-12T07:51:16;102001.94;;;2.76;87.50
77227;BME280;66234;47.642;19.144;2023-02-12T07:54:20;102005.81;;;2.83;87.36
77227;BME280;66234;47.642;19.144;2023-02-12T07:57:23;102015.44;;;2.84;87.64
77227;BME280;66234;47.642;19.144;2023-02-12T08:00:25;102007.41;;;2.96;86.83
77227;BME280;66234;47.642;19.144;2023-02-12T08:03:28;102006.59;;;3.07;86.29
77227;BME280;66234;47.642;19.144;2023-02-12T08:06:33;102012.16;;;3.15;86.24
77227;BME280;66234;47.642;19.144;2023-02-12T08:09:36;102015.09;;;3.34;85.05
77227;BME280;66234;47.642;19.144;2023-02-12T08:12:39;102014.50;;;3.64;83.67
77227;BME280;66234;47.642;19.144;2023-02-12T08:15:41;102013.91;;;3.60;84.14
77227;BME280;66234;47.642;19.144;2023-02-12T08:18:44;102020.03;;;3.83;83.01
77227;BME280;66234;47.642;19.144;2023-02-12T08:21:51;102029.31;;;3.88;82.46
77227;BME280;66234;47.642;19.144;2023-02-12T08:24:54;102031.34;;;3.96;82.36
77227;BME280;66234;47.642;19.144;2023-02-12T08:27:57;102034.31;;;4.02;82.42
77227;BME280;66234;47.642;19.144;2023-02-12T08:31:01;102038.94;;;4.54;79.05
77227;BME280;66234;47.642;19.144;2023-02-12T08:34:04;102029.59;;;4.70;78.12
77227;BME280;66234;47.642;19.144;2023-02-12T08:37:07;102032.84;;;4.74;77.94
77227;BME280;66234;47.642;19.144;2023-02-12T08:40:10;102034.94;;;4.91;77.32
77227;BME280;66234;47.642;19.144;2023-02-12T08:43:15;102039.56;;;5.09;76.40
77227;BME280;66234;47.642;19.144;2023-02-12T08:46:21;102045.84;;;5.08;76.36
77227;BME280;66234;47.642;19.144;2023-02-12T08:49:26;102054.28;;;5.23;75.68
77227;BME280;66234;47.642;19.144;2023-02-12T08:52:29;102044.84;;;5.09;75.98
77227;BME280;66234;47.642;19.144;2023-02-12T08:55:32;102053.19;;;5.05;76.37
77227;BME280;66234;47.642;19.144;2023-02-12T08:58:35;102056.38;;;5.20;75.50
77227;BME280;66234;47.642;19.144;2023-02-12T09:01:39;102059.66;;;5.53;74.15
77227;BME280;66234;47.642;19.144;2023-02-12T09:04:43;102062.38;;;5.83;72.60
77227;BME280;66234;47.642;19.144;2023-02-12T09:07:45;102064.50;;;5.89;71.90
77227;BME280;66234;47.642;19.144;2023-02-12T09:10:48;102065.75;;;6.15;71.16
77227;BME280;66234;47.642;19.144;2023-02-12T09:13:51;102076.63;;;6.22;70.35
77227;BME280;66234;47.642;19.144;2023-02-12T09:16:54;102082.41;;;6.27;70.15
77227;BME280;66234;47.642;19.144;2023-02-12T09:19:58;102081.38;;;6.58;68.95
77227;BME280;66234;47.642;19.144;2023-02-12T09:23:02;102073.44;;;6.87;67.11
77227;BME280;66234;47.642;19.144;2023-02-12T09:26:07;102070.06;;;7.13;65.74
77227;BME280;66234;47.642;19.144;2023-02-12T09:29:09;102083.78;;;7.28;64.64
77227;BME280;66234;47.642;19.144;2023-02-12T09:32:12;102092.19;;;7.33;64.56
77227;BME280;66234;47.642;19.144;2023-02-12T09:35:15;102090.78;;;7.29;64.54
77227;BME280;66234;47.642;19.144;2023-02-12T09:38:18;102091.22;;;7.34;64.47
77227;BME280;66234;47.642;19.144;2023-02-12T09:45:09;102097.50;;;7.42;63.82
77227;BME280;66234;47.642;19.144;2023-02-12T09:49:02;102103.22;;;7.57;63.58
77227;BME280;66234;47.642;19.144;2023-02-12T09:52:15;102099.88;;;7.55;63.58
77227;BME280;66234;47.642;19.144;2023-02-12T09:55:18;102102.13;;;7.59;63.70
77227;BME280;66234;47.642;19.144;2023-02-12T09:58:32;102102.81;;;7.52;63.33
77227;BME280;66234;47.642;19.144;2023-02-12T10:01:36;102101.28;;;7.40;64.09
77227;BME280;66234;47.642;19.144;2023-02-12T10:04:41;102107.88;;;7.55;63.49
77227;BME280;66234;47.642;19.144;2023-02-12T10:15:01;102115.84;;;7.55;63.36
77227;BME280;66234;47.642;19.144;2023-02-12T10:25:23;102133.03;;;7.89;62.21
77227;BME280;66234;47.642;19.144;2023-02-12T10:28:33;102134.38;;;8.02;62.37
77227;BME280;66234;47.642;19.144;2023-02-12T10:31:42;102125.63;;;8.29;60.72
77227;BME280;66234;47.642;19.144;2023-02-12T10:34:47;102123.25;;;8.53;60.49
77227;BME280;66234;47.642;19.144;2023-02-12T10:38:05;102132.81;;;8.73;59.21
77227;BME280;66234;47.642;19.144;2023-02-12T10:41:10;102128.03;;;8.77;58.16
77227;BME280;66234;47.642;19.144;2023-02-12T10:44:16;102128.84;;;8.77;59.02
77227;BME280;66234;47.642;19.144;2023-02-12T10:47:21;102122.16;;;8.73;59.14
77227;BME280;66234;47.642;19.144;2023-02-12T10:50:51;102118.63;;;9.00;57.67
77227;BME280;66234;47.642;19.144;2023-02-12T10:54:36;102119.69;;;9.07;56.88
77227;BME280;66234;47.642;19.144;2023-02-12T10:57:40;102122.09;;;8.83;57.20
77227;BME280;66234;47.642;19.144;2023-02-12T11:00:42;102119.75;;;8.97;57.11
77227;BME280;66234;47.642;19.144;2023-02-12T11:03:45;102131.09;;;9.34;56.16
77227;BME280;66234;47.642;19.144;2023-02-12T11:07:03;102131.09;;;9.52;55.54
77227;BME280;66234;47.642;19.144;2023-02-12T11:10:20;102126.69;;;9.43;55.81
77227;BME280;66234;47.642;19.144;2023-02-12T11:13:25;102124.63;;;9.54;55.51
77227;BME280;66234;47.642;19.144;2023-02-12T11:16:32;102130.31;;;9.77;54.44
77227;BME280;66234;47.642;19.144;2023-02-12T11:19:35;102132.56;;;9.89;54.76
77227;BME280;66234;47.642;19.144;2023-02-12T11:22:48;102135.63;;;10.02;53.30
77227;BME280;66234;47.642;19.144;2023-02-12T11:29:22;102121.66;;;9.83;53.73
77227;BME280;66234;47.642;19.144;2023-02-12T11:32:28;102127.75;;;9.93;53.74
77227;BME280;66234;47.642;19.144;2023-02-12T11:35:31;102123.59;;;10.16;52.85
77227;BME280;66234;47.642;19.144;2023-02-12T11:38:47;102127.53;;;9.86;53.08
77227;BME280;66234;47.642;19.144;2023-02-12T11:41:56;102127.47;;;9.78;53.76
77227;BME280;66234;47.642;19.144;2023-02-12T11:44:59;102129.94;;;9.97;53.79
77227;BME280;66234;47.642;19.144;2023-02-12T11:51:28;102135.41;;;10.39;52.37
77227;BME280;66234;47.642;19.144;2023-02-12T11:54:45;102123.28;;;10.61;51.14
77227;BME280;66234;47.642;19.144;2023-02-12T11:57:54;102122.34;;;10.44;52.16
77227;BME280;66234;47.642;19.144;2023-02-12T12:01:23;102115.78;;;10.64;51.45
77227;BME280;66234;47.642;19.144;2023-02-12T12:04:29;102113.84;;;10.90;51.57
77227;BME280;66234;47.642;19.144;2023-02-12T12:07:38;102112.88;;;11.07;51.32
77227;BME280;66234;47.642;19.144;2023-02-12T12:10:49;102121.25;;;11.28;51.22
77227;BME280;66234;47.642;19.144;2023-02-12T12:17:10;102121.78;;;10.66;52.15
77227;BME280;66234;47.642;19.144;2023-02-12T12:21:10;102124.84;;;10.38;52.15
77227;BME280;66234;47.642;19.144;2023-02-12T12:24:17;102116.34;;;10.42;51.86
77227;BME280;66234;47.642;19.144;2023-02-12T12:31:13;102112.47;;;10.29;52.49
77227;BME280;66234;47.642;19.144;2023-02-12T12:34:21;102111.75;;;10.27;52.79
77227;BME280;66234;47.642;19.144;2023-02-12T12:38:17;102109.72;;;10.21;53.00
77227;BME280;66234;47.642;19.144;2023-02-12T12:40:59;102105.78;;;10.33;52.39
77227;BME280;66234;47.642;19.144;2023-02-12T12:44:32;102105.53;;;10.52;52.30
77227;BME280;66234;47.642;19.144;2023-02-12T12:54:58;102114.41;;;9.93;53.05
77227;BME280;66234;47.642;19.144;2023-02-12T12:59:06;102110.66;;;9.60;52.96
77227;BME280;66234;47.642;19.144;2023-02-12T13:05:39;102113.88;;;9.29;54.43
77227;BME280;66234;47.642;19.144;2023-02-12T13:12:18;102112.53;;;9.25;54.55
77227;BME280;66234;47.642;19.144;2023-02-12T13:26:08;102108.56;;;8.94;55.76
77227;BME280;66234;47.642;19.144;2023-02-12T13:32:34;102121.22;;;9.09;55.78
77227;BME280;66234;47.642;19.144;2023-02-12T13:35:42;102126.69;;;9.25;55.09
77227;BME280;66234;47.642;19.144;2023-02-12T13:38:51;102127.84;;;9.40;54.80
77227;BME280;66234;47.642;19.144;2023-02-12T13:51:44;102138.31;;;10.02;54.06
77227;BME280;66234;47.642;19.144;2023-02-12T14:04:54;102127.84;;;9.40;55.11
77227;BME280;66234;47.642;19.144;2023-02-12T14:08:00;102126.94;;;9.32;54.82
77227;BME280;66234;47.642;19.144;2023-02-12T14:11:11;102118.06;;;9.31;55.13
77227;BME280;66234;47.642;19.144;2023-02-12T14:14:39;102127.78;;;9.32;54.73
77227;BME280;66234;47.642;19.144;2023-02-12T14:17:55;102133.34;;;9.21;54.94
77227;BME280;66234;47.642;19.144;2023-02-12T14:24:46;102128.91;;;8.95;56.53
77227;BME280;66234;47.642;19.144;2023-02-12T14:27:53;102128.97;;;8.85;56.95
77227;BME280;66234;47.642;19.144;2023-02-12T14:34:37;102153.91;;;8.40;58.49
77227;BME280;66234;47.642;19.144;2023-02-12T14:37:40;102158.16;;;8.23;59.28
77227;BME280;66234;47.642;19.144;2023-02-12T14:40:52;102162.09;;;8.09;59.41
77227;BME280;66234;47.642;19.144;2023-02-12T14:50:46;102164.16;;;7.60;60.93
77227;BME280;66234;47.642;19.144;2023-02-12T14:53:54;102165.00;;;7.51;61.00
77227;BME280;66234;47.642;19.144;2023-02-12T14:57:02;102165.28;;;7.38;61.13
77227;BME280;66234;47.642;19.144;2023-02-12T15:03:24;102165.69;;;7.24;61.45
77227;BME280;66234;47.642;19.144;2023-02-12T15:06:38;102168.91;;;7.18;61.81
77227;BME280;66234;47.642;19.144;2023-02-12T15:09:55;102171.56;;;7.09;61.94
77227;BME280;66234;47.642;19.144;2023-02-12T15:13:22;102169.31;;;7.04;62.44
77227;BME280;66234;47.642;19.144;2023-02-12T15:16:54;102178.84;;;6.97;62.53
77227;BME280;66234;47.642;19.144;2023-02-12T15:20:15;102180.66;;;7.06;62.76
77227;BME280;66234;47.642;19.144;2023-02-12T15:26:47;102174.22;;;6.99;62.89
77227;BME280;66234;47.642;19.144;2023-02-12T15:29:52;102163.44;;;6.91;63.15
77227;BME280;66234;47.642;19.144;2023-02-12T15:32:57;102169.13;;;6.77;63.37
77227;BME280;66234;47.642;19.144;2023-02-12T15:36:02;102171.03;;;6.65;63.86
77227;BME280;66234;47.642;19.144;2023-02-12T15:39:07;102172.09;;;6.44;64.51
77227;BME280;66234;47.642;19.144;2023-02-12T15:42:31;102171.03;;;6.26;65.08
77227;BME280;66234;47.642;19.144;2023-02-12T15:45:35;102181.56;;;6.07;66.44
77227;BME280;66234;47.642;19.144;2023-02-12T15:48:38;102178.41;;;5.92;66.48
77227;BME280;66234;47.642;19.144;2023-02-12T15:51:41;102186.47;;;5.70;67.05
77227;BME280;66234;47.642;19.144;2023-02-12T15:54:45;102181.38;;;5.47;67.98
77227;BME280;66234;47.642;19.144;2023-02-12T15:57:54;102191.00;;;5.27;68.90
77227;BME280;66234;47.642;19.144;2023-02-12T16:01:02;102200.41;;;5.09;69.69
77227;BME280;66234;47.642;19.144;2023-02-12T16:04:06;102197.34;;;4.93;70.36
77227;BME280;66234;47.642;19.144;2023-02-12T16:07:11;102211.78;;;4.89;70.44
77227;BME280;66234;47.642;19.144;2023-02-12T16:10:17;102213.63;;;4.77;70.79
77227;BME280;66234;47.642;19.144;2023-02-12T16:13:45;102220.28;;;4.61;71.12
77227;BME280;66234;47.642;19.144;2023-02-12T16:16:50;102224.56;;;4.29;72.48
77227;BME280;66234;47.642;19.144;2023-02-12T16:20:06;102230.91;;;4.04;73.40
77227;BME280;66234;47.642;19.144;2023-02-12T16:23:21;102227.38;;;3.82;74.28
77227;BME280;66234;47.642;19.144;2023-02-12T16:26:26;102233.25;;;3.74;74.77
77227;BME280;66234;47.642;19.144;2023-02-12T16:29:30;102239.94;;;3.67;75.04
77227;BME280;66234;47.642;19.144;2023-02-12T16:32:37;102249.03;;;3.52;75.21
77227;BME280;66234;47.642;19.144;2023-02-12T16:35:40;102247.50;;;3.37;75.66
77227;BME280;66234;47.642;19.144;2023-02-12T16:38:46;102253.38;;;3.40;75.31
77227;BME280;66234;47.642;19.144;2023-02-12T16:41:54;102255.16;;;3.29;75.65
77227;BME280;66234;47.642;19.144;2023-02-12T16:44:57;102264.63;;;3.08;75.84
77227;BME280;66234;47.642;19.144;2023-02-12T16:54:33;102268.09;;;2.60;77.90
77227;BME280;66234;47.642;19.144;2023-02-12T16:57:36;102273.88;;;2.52;78.17
77227;BME280;66234;47.642;19.144;2023-02-12T17:00:39;102272.22;;;2.39;78.23
77227;BME280;66234;47.642;19.144;2023-02-12T17:03:42;102277.16;;;2.31;78.77
77227;BME280;66234;47.642;19.144;2023-02-12T17:06:46;102280.66;;;2.19;79.30
77227;BME280;66234;47.642;19.144;2023-02-12T17:09:49;102274.84;;;2.14;79.33
77227;BME280;66234;47.642;19.144;2023-02-12T17:12:52;102283.28;;;2.06;79.71
77227;BME280;66234;47.642;19.144;2023-02-12T17:15:57;102282.94;;;1.98;79.74
77227;BME280;66234;47.642;19.144;2023-02-12T17:19:01;102283.25;;;1.94;80.11
77227;BME280;66234;47.642;19.144;2023-02-12T17:22:07;102281.56;;;1.93;80.08
77227;BME280;66234;47.642;19.144;2023-02-12T17:25:17;102289.56;;;1.91;80.23
77227;BME280;66234;47.642;19.144;2023-02-12T17:28:20;102283.66;;;1.88;80.59
77227;BME280;66234;47.642;19.144;2023-02-12T17:31:24;102277.41;;;1.76;80.55
77227;BME280;66234;47.642;19.144;2023-02-12T17:34:27;102286.88;;;1.66;81.07
77227;BME280;66234;47.642;19.144;2023-02-12T17:37:40;102282.69;;;1.76;82.17
77227;BME280;66234;47.642;19.144;2023-02-12T17:40:43;102289.69;;;1.90;81.52
77227;BME280;66234;47.642;19.144;2023-02-12T17:43:46;102298.41;;;1.78;80.44
77227;BME280;66234;47.642;19.144;2023-02-12T17:46:49;102299.03;;;1.68;80.87
77227;BME280;66234;47.642;19.144;2023-02-12T17:49:52;102296.75;;;1.62;80.35
77227;BME280;66234;47.642;19.144;2023-02-12T17:52:55;102300.28;;;1.49;80.88
77227;BME280;66234;47.642;19.144;2023-02-12T17:55:57;102301.75;;;1.40;81.52
77227;BME280;66234;47.642;19.144;2023-02-12T17:59:01;102295.75;;;1.24;82.22
77227;BME280;66234;47.642;19.144;2023-02-12T18:02:03;102298.97;;;1.15;82.10
77227;BME280;66234;47.642;19.144;2023-02-12T18:05:07;102305.84;;;1.04;81.97
77227;BME280;66234;47.642;19.144;2023-02-12T18:08:10;102308.97;;;0.96;83.00
77227;BME280;66234;47.642;19.144;2023-02-12T18:11:13;102315.38;;;0.92;82.68
77227;BME280;66234;47.642;19.144;2023-02-12T18:14:16;102311.50;;;0.84;83.13
77227;BME280;66234;47.642;19.144;2023-02-12T18:17:18;102314.44;;;0.79;83.14
77227;BME280;66234;47.642;19.144;2023-02-12T18:20:21;102323.00;;;0.69;83.08
77227;BME280;66234;47.642;19.144;2023-02-12T18:23:24;102325.34;;;0.59;83.76